Time;durP1;ratioP1;P1;durP2;ratioP2;P2;SDS_P1;SDS_P2;PMS_P1;PMS_P2;Temp;Humidity;BMP_temperature;BMP_pressure;BME280_temperature;BME280_humidity;BME280_pressure;Samples;Min_cycle;Max_cycle;Signal;HPM_P1;HPM_P2
2023/12/02 00:00:49;;;;;;;63.85;28.17;;;;;;;;;;2092064;28;20384;-56
2023/12/02 00:01:50;;;;;;;96.55;32.95;;;;;;;;;;2091344;28;20036;-56
2023/12/02 00:02:51;;;;;;;68.85;28.38;;;;;;;;;;2091856;28;20045;-56
2023/12/02 00:03:52;;;;;;;89.60;32.50;;;;;;;;;;2091676;28;20056;-56
2023/12/02 00:04:53;;;;;;;93.22;32.45;;;;;;;;;;2092055;28;20029;-56
2023/12/02 00:05:54;;;;;;;74.38;30.65;;;;;;;;;;2091384;28;20045;-56
2023/12/02 00:06:54;;;;;;;65.07;29.50;;;;;;;;;;2091652;28;20029;-56
2023/12/02 00:07:55;;;;;;;83.10;31.92;;;;;;;;;;2091839;28;20044;-56
2023/12/02 00:08:56;;;;;;;86.38;30.80;;;;;;;;;;2091659;28;20067;-56
2023/12/02 00:09:57;;;;;;;72.72;30.42;;;;;;;;;;2092007;28;20397;-56
2023/12/02 00:10:57;;;;;;;95.28;34.25;;;;;;;;;;2091644;28;20055;-56
2023/12/02 00:11:58;;;;;;;64.68;29.15;;;;;;;;;;2091962;28;20029;-56
2023/12/02 00:12:59;;;;;;;69.00;30.58;;;;;;;;;;2091872;28;20040;-56
2023/12/02 00:13:59;;;;;;;63.28;28.13;;;;;;;;;;2091619;28;20045;-56
2023/12/02 00:15:00;;;;;;;87.80;32.55;;;;;;;;;;2091614;28;20469;-56
2023/12/02 00:16:01;;;;;;;70.95;31.05;;;;;;;;;;2091701;28;20028;-56
2023/12/02 00:17:02;;;;;;;71.85;29.10;;;;;;;;;;2091583;28;20040;-56
2023/12/02 00:18:02;;;;;;;74.95;29.85;;;;;;;;;;2091515;28;20074;-56
2023/12/02 00:19:03;;;;;;;77.80;30.65;;;;;;;;;;2091438;28;20021;-56
2023/12/02 00:20:04;;;;;;;71.82;29.23;;;;;;;;;;2091456;28;20117;-56
2023/12/02 00:21:05;;;;;;;83.78;30.58;;;;;;;;;;2091309;28;20045;-56
2023/12/02 00:22:06;;;;;;;71.18;29.80;;;;;;;;;;2091390;28;20393;-56
2023/12/02 00:23:07;;;;;;;63.45;27.02;;;;;;;;;;2091885;28;20033;-56
2023/12/02 00:24:07;;;;;;;81.00;30.83;;;;;;;;;;2091861;28;20021;-56
2023/12/02 00:25:08;;;;;;;75.50;26.80;;;;;;;;;;2091608;28;20040;-56
2023/12/02 00:26:10;;;;;;;79.28;31.80;;;;;;;;;;2091921;28;20120;-56
2023/12/02 00:27:12;;;;;;;80.05;28.75;;;;;;;;;;2090854;28;20033;-56
2023/12/02 00:28:12;;;;;;;69.20;28.77;;;;;;;;;;2082418;28;20041;-56
2023/12/02 00:29:13;;;;;;;74.53;29.70;;;;;;;;;;2091328;28;20021;-56
2023/12/02 00:30:14;;;;;;;79.13;29.63;;;;;;;;;;2091328;28;20396;-56
2023/12/02 00:31:15;;;;;;;64.53;26.95;;;;;;;;;;2091660;28;20040;-56
2023/12/02 00:32:17;;;;;;;52.25;24.13;;;;;;;;;;2091909;28;20048;-56
2023/12/02 00:33:17;;;;;;;80.95;29.15;;;;;;;;;;2091822;28;20040;-56
2023/12/02 00:34:18;;;;;;;68.40;27.13;;;;;;;;;;2091364;28;20029;-56
2023/12/02 00:35:19;;;;;;;76.72;29.10;;;;;;;;;;2091718;28;20035;-57
2023/12/02 00:36:20;;;;;;;67.07;27.92;;;;;;;;;;2091489;28;20405;-56
2023/12/02 00:37:20;;;;;;;60.63;28.05;;;;;;;;;;2090800;28;20530;-56
2023/12/02 00:38:21;;;;;;;76.72;29.77;;;;;;;;;;2091454;28;20049;-56
2023/12/02 00:39:22;;;;;;;76.78;27.63;;;;;;;;;;2091460;28;20037;-56
2023/12/02 00:40:23;;;;;;;72.88;27.70;;;;;;;;;;2091545;28;20362;-56
2023/12/02 00:41:24;;;;;;;69.20;27.25;;;;;;;;;;2091807;28;20052;-56
2023/12/02 00:42:24;;;;;;;86.43;29.42;;;;;;;;;;2091418;28;20504;-56
2023/12/02 00:43:25;;;;;;;66.38;27.02;;;;;;;;;;2091499;28;20491;-56
2023/12/02 00:44:26;;;;;;;65.78;26.08;;;;;;;;;;2091603;28;20033;-57
2023/12/02 00:45:26;;;;;;;57.83;26.10;;;;;;;;;;2091618;28;20036;-56
2023/12/02 00:46:27;;;;;;;74.75;28.30;;;;;;;;;;2091541;28;20033;-56
2023/12/02 00:47:28;;;;;;;61.03;25.35;;;;;;;;;;2091316;28;20551;-57
2023/12/02 00:48:29;;;;;;;54.83;25.13;;;;;;;;;;2091371;28;20432;-56
2023/12/02 00:49:29;;;;;;;76.40;27.92;;;;;;;;;;2091275;28;20473;-56
2023/12/02 00:50:30;;;;;;;70.80;27.90;;;;;;;;;;2091387;28;20021;-56
2023/12/02 00:51:31;;;;;;;77.32;27.98;;;;;;;;;;2091257;28;20021;-56
2023/12/02 00:52:31;;;;;;;61.08;25.08;;;;;;;;;;2091019;28;20044;-56
2023/12/02 00:53:32;;;;;;;67.60;27.45;;;;;;;;;;2091504;28;20053;-56
2023/12/02 00:54:35;;;;;;;68.88;28.80;;;;;;;;;;2091357;28;20036;-56
2023/12/02 00:55:36;;;;;;;66.82;27.40;;;;;;;;;;2091340;28;20389;-56
2023/12/02 00:56:36;;;;;;;55.63;24.95;;;;;;;;;;2091315;28;20044;-57
2023/12/02 00:57:37;;;;;;;73.25;28.60;;;;;;;;;;2090967;28;20053;-56
2023/12/02 00:58:38;;;;;;;74.13;28.13;;;;;;;;;;2091488;28;20047;-56
2023/12/02 00:59:38;;;;;;;66.25;27.30;;;;;;;;;;2091078;28;20044;-56
2023/12/02 01:00:39;;;;;;;66.20;26.25;;;;;;;;;;2091681;28;20362;-56
2023/12/02 01:01:40;;;;;;;76.10;29.80;;;;;;;;;;2091723;28;20112;-56
2023/12/02 01:02:41;;;;;;;64.85;26.13;;;;;;;;;;2091310;28;20049;-56
2023/12/02 01:03:41;;;;;;;65.03;25.75;;;;;;;;;;2091469;28;20037;-56
2023/12/02 01:04:42;;;;;;;75.00;28.88;;;;;;;;;;2091688;28;20045;-56
2023/12/02 01:05:43;;;;;;;64.15;25.63;;;;;;;;;;2090955;28;20418;-56
2023/12/02 01:06:44;;;;;;;73.03;29.50;;;;;;;;;;2091007;28;20052;-56
2023/12/02 01:07:44;;;;;;;69.15;27.35;;;;;;;;;;2091641;28;20017;-56
2023/12/02 01:08:45;;;;;;;62.35;26.80;;;;;;;;;;2091450;28;20044;-56
2023/12/02 01:09:46;;;;;;;58.85;25.20;;;;;;;;;;2091426;28;20037;-56
2023/12/02 01:10:46;;;;;;;63.53;25.33;;;;;;;;;;2091253;28;20049;-56
2023/12/02 01:11:47;;;;;;;75.03;28.80;;;;;;;;;;2091241;28;20041;-57
2023/12/02 01:12:48;;;;;;;58.08;24.60;;;;;;;;;;2091276;28;20508;-57
2023/12/02 01:13:49;;;;;;;69.75;26.33;;;;;;;;;;2091275;28;20037;-56
2023/12/02 01:14:49;;;;;;;64.60;26.15;;;;;;;;;;2091104;28;20036;-56
2023/12/02 01:15:50;;;;;;;69.03;25.83;;;;;;;;;;2091329;28;20059;-56
2023/12/02 01:16:51;;;;;;;60.63;26.95;;;;;;;;;;2090843;28;20112;-56
2023/12/02 01:17:52;;;;;;;62.53;26.10;;;;;;;;;;2091098;28;20060;-56
2023/12/02 01:18:53;;;;;;;58.13;27.20;;;;;;;;;;2091474;28;20062;-56
2023/12/02 01:19:53;;;;;;;73.93;25.90;;;;;;;;;;2091570;28;20464;-56
2023/12/02 01:20:54;;;;;;;72.38;27.50;;;;;;;;;;2090692;28;20064;-56
2023/12/02 01:21:55;;;;;;;58.65;24.98;;;;;;;;;;2091270;28;20033;-56
2023/12/02 01:22:55;;;;;;;72.75;28.48;;;;;;;;;;2091110;28;20048;-56
2023/12/02 01:23:56;;;;;;;59.97;26.35;;;;;;;;;;2091626;28;20104;-56
2023/12/02 01:24:57;;;;;;;64.35;26.67;;;;;;;;;;2091357;28;20044;-56
2023/12/02 01:25:58;;;;;;;60.22;25.63;;;;;;;;;;2091211;28;20029;-56
2023/12/02 01:26:59;;;;;;;59.55;25.88;;;;;;;;;;2091116;28;20519;-56
2023/12/02 01:28:00;;;;;;;63.28;26.77;;;;;;;;;;2090862;28;20040;-56
2023/12/02 01:29:01;;;;;;;53.63;24.08;;;;;;;;;;2090830;28;20120;-56
2023/12/02 01:30:02;;;;;;;50.95;23.10;;;;;;;;;;2091076;28;20040;-56
2023/12/02 01:31:03;;;;;;;52.42;24.55;;;;;;;;;;2091421;28;20174;-57
2023/12/02 01:32:04;;;;;;;62.13;25.30;;;;;;;;;;2091075;28;20041;-56
2023/12/02 01:33:05;;;;;;;59.75;24.70;;;;;;;;;;2091135;28;20064;-56
2023/12/02 01:34:05;;;;;;;55.25;25.15;;;;;;;;;;2090999;28;20393;-56
2023/12/02 01:35:06;;;;;;;57.05;24.25;;;;;;;;;;2090997;28;20025;-57
2023/12/02 01:36:13;;;;;;;67.90;26.77;;;;;;;;;;2091275;28;20017;-56
2023/12/02 01:37:13;;;;;;;55.45;24.42;;;;;;;;;;2090436;28;20051;-57
2023/12/02 01:38:14;;;;;;;66.78;27.23;;;;;;;;;;2090818;28;20048;-57
2023/12/02 01:39:15;;;;;;;77.47;27.52;;;;;;;;;;2090919;28;20049;-56
2023/12/02 01:40:16;;;;;;;63.60;26.42;;;;;;;;;;2091309;28;20025;-57
2023/12/02 01:41:16;;;;;;;50.88;22.50;;;;;;;;;;2091246;28;20465;-56
2023/12/02 01:42:18;;;;;;;63.67;25.95;;;;;;;;;;2091057;28;20024;-57
2023/12/02 01:43:28;;;;;;;53.17;23.27;;;;;;;;;;2090277;28;20049;-56
2023/12/02 01:44:28;;;;;;;55.38;23.88;;;;;;;;;;2090716;28;20041;-56
2023/12/02 01:45:29;;;;;;;55.40;24.40;;;;;;;;;;2091182;28;20033;-57
2023/12/02 01:46:30;;;;;;;66.57;25.98;;;;;;;;;;2091260;28;20033;-56
2023/12/02 01:47:30;;;;;;;49.67;23.85;;;;;;;;;;2090908;28;20044;-57
2023/12/02 01:48:34;;;;;;;61.17;26.35;;;;;;;;;;2091254;28;20404;-56
2023/12/02 01:49:35;;;;;;;58.25;24.70;;;;;;;;;;2090984;28;20033;-56
2023/12/02 01:50:36;;;;;;;47.58;20.67;;;;;;;;;;2091171;28;20405;-57
2023/12/02 01:51:36;;;;;;;63.95;26.17;;;;;;;;;;2090111;28;20044;-56
2023/12/02 01:52:37;;;;;;;45.28;22.27;;;;;;;;;;2090005;28;20076;-57
2023/12/02 01:53:39;;;;;;;61.38;24.13;;;;;;;;;;2090792;28;20123;-57
2023/12/02 01:54:39;;;;;;;50.20;22.70;;;;;;;;;;2091162;28;20044;-57
2023/12/02 01:55:40;;;;;;;61.83;25.10;;;;;;;;;;2089981;28;20052;-57
2023/12/02 01:56:41;;;;;;;54.63;23.42;;;;;;;;;;2082199;28;20109;-57
2023/12/02 01:57:55;;;;;;;58.08;23.38;;;;;;;;;;2083596;28;20029;-55
2023/12/02 01:58:57;;;;;;;56.03;23.52;;;;;;;;;;2089938;28;20424;-55
2023/12/02 01:59:57;;;;;;;56.47;25.25;;;;;;;;;;2091047;28;20045;-55
2023/12/02 02:00:58;;;;;;;57.70;24.75;;;;;;;;;;2090794;28;20036;-54
2023/12/02 02:01:59;;;;;;;54.20;22.20;;;;;;;;;;2090898;28;20504;-55
2023/12/02 02:03:00;;;;;;;63.95;24.63;;;;;;;;;;2091182;28;20033;-55
2023/12/02 02:04:00;;;;;;;50.80;22.38;;;;;;;;;;2090859;28;20029;-56
2023/12/02 02:05:01;;;;;;;44.10;21.40;;;;;;;;;;2090441;28;20068;-55
2023/12/02 02:06:02;;;;;;;50.00;22.15;;;;;;;;;;2090496;28;20025;-55
2023/12/02 02:07:02;;;;;;;53.90;23.92;;;;;;;;;;2090472;28;20037;-56
2023/12/02 02:08:03;;;;;;;43.92;21.45;;;;;;;;;;2090317;28;20033;-55
2023/12/02 02:09:04;;;;;;;55.35;23.63;;;;;;;;;;2090193;28;20067;-55
2023/12/02 02:10:05;;;;;;;53.42;22.73;;;;;;;;;;2091074;28;20021;-56
2023/12/02 02:11:06;;;;;;;50.30;22.55;;;;;;;;;;2090798;28;20484;-55
2023/12/02 02:12:07;;;;;;;54.55;23.30;;;;;;;;;;2091292;28;20037;-55
2023/12/02 02:13:08;;;;;;;57.30;24.27;;;;;;;;;;2090858;28;20452;-55
2023/12/02 02:14:08;;;;;;;51.88;23.00;;;;;;;;;;2091408;28;20412;-55
2023/12/02 02:15:09;;;;;;;48.25;21.73;;;;;;;;;;2091152;28;20037;-55
2023/12/02 02:16:11;;;;;;;56.13;23.25;;;;;;;;;;2090783;28;20033;-55
2023/12/02 02:17:12;;;;;;;49.85;23.00;;;;;;;;;;2090583;28;20047;-55
2023/12/02 02:18:12;;;;;;;57.00;23.85;;;;;;;;;;2090751;28;20040;-55
2023/12/02 02:19:13;;;;;;;40.92;20.35;;;;;;;;;;2091090;28;20045;-55
2023/12/02 02:20:14;;;;;;;54.63;23.35;;;;;;;;;;2090578;28;20096;-55
2023/12/02 02:21:19;;;;;;;51.75;23.25;;;;;;;;;;2089824;28;20069;-55
2023/12/02 02:22:20;;;;;;;46.30;21.60;;;;;;;;;;2091123;28;20052;-55
2023/12/02 02:23:22;;;;;;;50.42;22.08;;;;;;;;;;2090822;28;20048;-54
2023/12/02 02:24:22;;;;;;;48.28;22.35;;;;;;;;;;2090765;28;20033;-55
2023/12/02 02:25:23;;;;;;;50.97;22.33;;;;;;;;;;2090522;28;20045;-55
2023/12/02 02:26:24;;;;;;;49.60;22.02;;;;;;;;;;2090338;28;20041;-55
2023/12/02 02:27:24;;;;;;;51.60;22.58;;;;;;;;;;2090823;28;20025;-55
2023/12/02 02:28:26;;;;;;;50.45;22.58;;;;;;;;;;2090791;28;20052;-55
2023/12/02 02:29:26;;;;;;;54.75;22.17;;;;;;;;;;2090606;28;20041;-55
2023/12/02 02:30:27;;;;;;;50.28;21.98;;;;;;;;;;2090489;28;20392;-55
2023/12/02 02:31:28;;;;;;;53.17;22.75;;;;;;;;;;2090416;28;20531;-55
2023/12/02 02:32:28;;;;;;;52.35;23.45;;;;;;;;;;2090524;28;20072;-56
2023/12/02 02:33:31;;;;;;;53.15;23.63;;;;;;;;;;2090420;28;20477;-55
2023/12/02 02:34:32;;;;;;;55.20;24.00;;;;;;;;;;2090562;28;20128;-55
2023/12/02 02:35:33;;;;;;;55.88;24.00;;;;;;;;;;2089192;28;20041;-55
2023/12/02 02:36:34;;;;;;;51.65;22.67;;;;;;;;;;2089398;28;20128;-55
2023/12/02 02:37:34;;;;;;;45.88;21.75;;;;;;;;;;2089805;28;20033;-55
2023/12/02 02:38:35;;;;;;;51.38;23.02;;;;;;;;;;2090517;28;20455;-55
2023/12/02 02:39:36;;;;;;;50.70;23.08;;;;;;;;;;2090623;28;20416;-55
2023/12/02 02:40:37;;;;;;;58.67;24.10;;;;;;;;;;2090206;28;20610;-55
2023/12/02 02:41:37;;;;;;;46.63;22.92;;;;;;;;;;2090477;28;20370;-55
2023/12/02 02:42:38;;;;;;;58.47;24.60;;;;;;;;;;2090510;28;20029;-55
2023/12/02 02:43:39;;;;;;;52.85;23.42;;;;;;;;;;2090518;28;20405;-55
2023/12/02 02:44:39;;;;;;;54.83;23.42;;;;;;;;;;2090689;28;20465;-55
2023/12/02 02:45:40;;;;;;;62.88;25.08;;;;;;;;;;2090477;28;20048;-55
2023/12/02 02:46:41;;;;;;;63.28;25.40;;;;;;;;;;2090220;28;20041;-55
2023/12/02 02:47:42;;;;;;;59.38;25.08;;;;;;;;;;2090208;28;20053;-55
2023/12/02 02:48:42;;;;;;;51.70;23.13;;;;;;;;;;2090469;28;20040;-55
2023/12/02 02:49:43;;;;;;;52.13;21.98;;;;;;;;;;2090412;28;20055;-55
2023/12/02 02:50:44;;;;;;;55.30;24.33;;;;;;;;;;2090720;28;20339;-55
2023/12/02 02:51:44;;;;;;;51.75;22.15;;;;;;;;;;2090689;28;20469;-56
2023/12/02 02:52:45;;;;;;;59.45;25.08;;;;;;;;;;2090677;28;20021;-55
2023/12/02 02:53:46;;;;;;;56.22;24.58;;;;;;;;;;2090543;28;20098;-56
2023/12/02 02:54:47;;;;;;;53.17;24.23;;;;;;;;;;2090439;28;20041;-55
2023/12/02 02:55:48;;;;;;;51.35;23.23;;;;;;;;;;2089705;28;20056;-55
2023/12/02 02:56:49;;;;;;;59.05;23.90;;;;;;;;;;2090337;28;20029;-56
2023/12/02 02:57:50;;;;;;;51.75;23.30;;;;;;;;;;2090423;28;20397;-55
2023/12/02 02:58:51;;;;;;;52.22;23.67;;;;;;;;;;2090350;28;20072;-55
2023/12/02 02:59:52;;;;;;;46.75;22.92;;;;;;;;;;2089931;28;20401;-56
2023/12/02 03:00:52;;;;;;;61.03;25.50;;;;;;;;;;2089401;28;20071;-55
2023/12/02 03:01:53;;;;;;;49.85;22.80;;;;;;;;;;2090707;28;20048;-55
2023/12/02 03:02:54;;;;;;;63.83;26.05;;;;;;;;;;2090474;28;20029;-55
2023/12/02 03:03:54;;;;;;;57.70;23.40;;;;;;;;;;2090060;28;20068;-56
2023/12/02 03:04:55;;;;;;;57.05;24.20;;;;;;;;;;2090266;28;20039;-55
2023/12/02 03:05:56;;;;;;;50.40;23.27;;;;;;;;;;2090454;28;20112;-56
2023/12/02 03:06:57;;;;;;;47.47;22.45;;;;;;;;;;2090610;28;20190;-55
2023/12/02 03:07:57;;;;;;;50.53;22.13;;;;;;;;;;2090585;28;20136;-56
2023/12/02 03:08:58;;;;;;;52.22;23.40;;;;;;;;;;2090209;28;20041;-56
2023/12/02 03:09:59;;;;;;;51.03;21.75;;;;;;;;;;2090169;28;20071;-55
2023/12/02 03:10:59;;;;;;;46.42;21.52;;;;;;;;;;2090398;28;20489;-56
2023/12/02 03:12:00;;;;;;;51.42;23.35;;;;;;;;;;2090268;28;20035;-55
2023/12/02 03:13:02;;;;;;;52.08;23.20;;;;;;;;;;2090248;28;20033;-55
2023/12/02 03:14:02;;;;;;;54.42;24.35;;;;;;;;;;2090489;28;20381;-55
2023/12/02 03:15:04;;;;;;;47.13;23.05;;;;;;;;;;2090279;28;20021;-55
2023/12/02 03:16:04;;;;;;;59.00;23.25;;;;;;;;;;2090239;28;20036;-55
2023/12/02 03:17:05;;;;;;;46.40;23.17;;;;;;;;;;2090396;28;20033;-55
2023/12/02 03:18:06;;;;;;;60.42;25.65;;;;;;;;;;2090412;28;20060;-55
2023/12/02 03:19:06;;;;;;;51.58;24.58;;;;;;;;;;2089760;28;20029;-55
2023/12/02 03:20:07;;;;;;;49.05;22.85;;;;;;;;;;2089877;28;20032;-55
2023/12/02 03:21:08;;;;;;;55.97;23.50;;;;;;;;;;2090122;28;20212;-56
2023/12/02 03:22:09;;;;;;;62.17;24.90;;;;;;;;;;2090303;28;20041;-54
2023/12/02 03:23:10;;;;;;;56.17;23.73;;;;;;;;;;2090600;28;20025;-55
2023/12/02 03:24:10;;;;;;;56.20;25.58;;;;;;;;;;2090223;28;20069;-55
2023/12/02 03:25:11;;;;;;;49.10;23.65;;;;;;;;;;2090307;28;20135;-55
2023/12/02 03:26:12;;;;;;;53.92;22.63;;;;;;;;;;2090245;28;20444;-55
2023/12/02 03:27:13;;;;;;;57.90;25.40;;;;;;;;;;2090293;28;20396;-55
2023/12/02 03:28:13;;;;;;;59.65;27.00;;;;;;;;;;2090131;28;20480;-57
2023/12/02 03:29:14;;;;;;;52.88;23.55;;;;;;;;;;2090258;28;20063;-55
2023/12/02 03:30:15;;;;;;;60.78;25.73;;;;;;;;;;2090218;28;20033;-55
2023/12/02 03:31:16;;;;;;;57.67;24.83;;;;;;;;;;2090492;28;20048;-55
2023/12/02 03:32:16;;;;;;;57.92;24.73;;;;;;;;;;2090309;28;20045;-55
2023/12/02 03:33:17;;;;;;;58.35;24.10;;;;;;;;;;2089923;28;20072;-55
2023/12/02 03:34:18;;;;;;;56.25;24.50;;;;;;;;;;2090357;28;20425;-55
2023/12/02 03:35:18;;;;;;;61.20;25.77;;;;;;;;;;2090629;28;20473;-56
2023/12/02 03:36:19;;;;;;;51.83;24.67;;;;;;;;;;2090168;28;20052;-55
2023/12/02 03:37:20;;;;;;;64.90;25.80;;;;;;;;;;2089627;28;20029;-55
2023/12/02 03:38:21;;;;;;;72.05;27.48;;;;;;;;;;2090161;28;20396;-55
2023/12/02 03:39:21;;;;;;;64.72;26.75;;;;;;;;;;2090356;28;20487;-55
2023/12/02 03:40:22;;;;;;;68.05;27.42;;;;;;;;;;2090722;28;20045;-55
2023/12/02 03:41:23;;;;;;;66.22;27.23;;;;;;;;;;2090173;28;20040;-55
2023/12/02 03:42:24;;;;;;;69.93;28.23;;;;;;;;;;2090111;28;20033;-55
2023/12/02 03:43:24;;;;;;;69.43;27.63;;;;;;;;;;2090112;28;20097;-55
2023/12/02 03:44:25;;;;;;;64.55;26.65;;;;;;;;;;2090139;28;20056;-55
2023/12/02 03:45:26;;;;;;;70.13;27.10;;;;;;;;;;2090115;28;20029;-54
2023/12/02 03:46:26;;;;;;;56.28;25.83;;;;;;;;;;2090521;28;20059;-54
2023/12/02 03:47:28;;;;;;;56.00;24.58;;;;;;;;;;2090112;28;20040;-55
2023/12/02 03:48:28;;;;;;;67.70;28.42;;;;;;;;;;2090108;28;20040;-54
2023/12/02 03:49:29;;;;;;;59.90;25.77;;;;;;;;;;2089912;28;20053;-55
2023/12/02 03:50:30;;;;;;;58.65;25.90;;;;;;;;;;2090113;28;20040;-57
2023/12/02 03:51:31;;;;;;;58.35;25.20;;;;;;;;;;2090267;28;20480;-57
2023/12/02 03:52:31;;;;;;;68.10;28.27;;;;;;;;;;2089867;28;20040;-54
2023/12/02 03:53:34;;;;;;;50.28;23.80;;;;;;;;;;2090161;28;20037;-57
2023/12/02 03:54:35;;;;;;;55.58;25.60;;;;;;;;;;2089783;28;20049;-57
2023/12/02 03:55:36;;;;;;;62.40;26.02;;;;;;;;;;2090276;28;20033;-55
2023/12/02 03:56:37;;;;;;;73.47;27.75;;;;;;;;;;2089743;28;20060;-55
2023/12/02 03:57:38;;;;;;;56.97;24.25;;;;;;;;;;2090383;28;20041;-56
2023/12/02 03:58:39;;;;;;;67.38;26.02;;;;;;;;;;2090137;28;20021;-54
2023/12/02 03:59:40;;;;;;;73.82;28.23;;;;;;;;;;2090106;28;20049;-56
2023/12/02 04:00:41;;;;;;;64.70;26.65;;;;;;;;;;2090094;28;20056;-56
2023/12/02 04:01:41;;;;;;;59.63;25.13;;;;;;;;;;2089916;28;20443;-56
2023/12/02 04:02:42;;;;;;;58.30;24.70;;;;;;;;;;2090362;28;20045;-56
2023/12/02 04:03:46;;;;;;;58.75;25.33;;;;;;;;;;2090072;28;20040;-55
2023/12/02 04:04:46;;;;;;;70.10;26.88;;;;;;;;;;2090208;28;20049;-56
2023/12/02 04:05:47;;;;;;;52.53;26.10;;;;;;;;;;2090010;28;20045;-56
2023/12/02 04:06:48;;;;;;;63.97;26.95;;;;;;;;;;2090292;28;20060;-56
2023/12/02 04:07:49;;;;;;;80.30;26.40;;;;;;;;;;2090105;28;20377;-57
2023/12/02 04:08:49;;;;;;;67.82;27.73;;;;;;;;;;2090133;28;20512;-57
2023/12/02 04:09:50;;;;;;;67.20;27.65;;;;;;;;;;2090416;28;20041;-56
2023/12/02 04:10:51;;;;;;;53.58;23.85;;;;;;;;;;2090028;28;20028;-56
2023/12/02 04:11:51;;;;;;;60.80;26.35;;;;;;;;;;2090219;28;20033;-56
2023/12/02 04:12:52;;;;;;;60.63;25.13;;;;;;;;;;2090257;28;20021;-56
2023/12/02 04:13:53;;;;;;;58.53;26.42;;;;;;;;;;2090122;28;20044;-56
2023/12/02 04:14:54;;;;;;;55.92;25.02;;;;;;;;;;2090020;28;20044;-54
2023/12/02 04:15:54;;;;;;;55.65;26.55;;;;;;;;;;2090015;28;20404;-54
2023/12/02 04:16:55;;;;;;;55.22;25.38;;;;;;;;;;2089591;28;20057;-54
2023/12/02 04:17:56;;;;;;;55.13;24.33;;;;;;;;;;2090122;28;20054;-54
2023/12/02 04:18:57;;;;;;;60.53;26.17;;;;;;;;;;2090041;28;20041;-54
2023/12/02 04:19:58;;;;;;;66.68;28.13;;;;;;;;;;2089944;28;20480;-54
2023/12/02 04:20:58;;;;;;;57.25;26.42;;;;;;;;;;2090031;28;20469;-54
2023/12/02 04:21:59;;;;;;;59.60;25.58;;;;;;;;;;2090379;28;20040;-54
2023/12/02 04:23:00;;;;;;;61.10;26.10;;;;;;;;;;2089971;28;20396;-54
2023/12/02 04:24:01;;;;;;;58.95;25.60;;;;;;;;;;2090076;28;20049;-54
2023/12/02 04:25:01;;;;;;;50.88;24.08;;;;;;;;;;2090100;28;20060;-54
2023/12/02 04:26:02;;;;;;;55.55;25.77;;;;;;;;;;2090468;28;20449;-55
2023/12/02 04:27:03;;;;;;;49.13;23.50;;;;;;;;;;2090231;28;20028;-54
2023/12/02 04:28:04;;;;;;;60.92;28.00;;;;;;;;;;2090144;28;20068;-54
2023/12/02 04:29:05;;;;;;;62.42;26.67;;;;;;;;;;2090422;28;20091;-54
2023/12/02 04:30:06;;;;;;;54.42;25.60;;;;;;;;;;2089805;28;20068;-54
2023/12/02 04:31:07;;;;;;;65.18;27.52;;;;;;;;;;2090394;28;20401;-55
2023/12/02 04:32:08;;;;;;;58.80;25.67;;;;;;;;;;2090208;28;20049;-54
2023/12/02 04:33:09;;;;;;;58.55;25.27;;;;;;;;;;2091539;28;20052;-54
2023/12/02 04:34:10;;;;;;;62.78;26.60;;;;;;;;;;2091572;28;20090;-55
2023/12/02 04:35:10;;;;;;;52.75;25.45;;;;;;;;;;2091559;28;20511;-55
2023/12/02 04:36:11;;;;;;;63.95;28.00;;;;;;;;;;2091417;28;20045;-54
2023/12/02 04:37:13;;;;;;;58.20;26.10;;;;;;;;;;2091708;28;20044;-55
2023/12/02 04:38:13;;;;;;;48.58;24.75;;;;;;;;;;2090333;28;20041;-55
2023/12/02 04:39:14;;;;;;;55.10;25.80;;;;;;;;;;2091308;28;20037;-55
2023/12/02 04:40:15;;;;;;;65.88;27.65;;;;;;;;;;2091766;28;20436;-54
2023/12/02 04:41:16;;;;;;;53.83;25.52;;;;;;;;;;2091690;28;20053;-54
2023/12/02 04:42:16;;;;;;;53.15;24.60;;;;;;;;;;2091476;28;20052;-54
2023/12/02 04:43:17;;;;;;;55.30;24.48;;;;;;;;;;2091415;28;20389;-55
2023/12/02 04:44:18;;;;;;;57.75;25.98;;;;;;;;;;2091712;28;20450;-54
2023/12/02 04:45:18;;;;;;;67.90;27.67;;;;;;;;;;2091433;28;20040;-54
2023/12/02 04:46:19;;;;;;;53.15;23.88;;;;;;;;;;2091102;28;20041;-54
2023/12/02 04:47:20;;;;;;;52.40;24.65;;;;;;;;;;2091555;28;20121;-55
2023/12/02 04:48:21;;;;;;;63.83;26.73;;;;;;;;;;2091704;28;20045;-55
2023/12/02 04:49:22;;;;;;;62.47;27.48;;;;;;;;;;2091627;28;20485;-55
2023/12/02 04:50:23;;;;;;;64.97;27.73;;;;;;;;;;2091753;28;20037;-56
2023/12/02 04:51:23;;;;;;;53.67;25.25;;;;;;;;;;2091578;28;20033;-54
2023/12/02 04:52:24;;;;;;;55.33;26.15;;;;;;;;;;2091691;28;20055;-54
2023/12/02 04:53:25;;;;;;;55.97;26.00;;;;;;;;;;2091556;28;20396;-54
2023/12/02 04:54:25;;;;;;;55.70;25.40;;;;;;;;;;2091538;28;20473;-54
2023/12/02 04:55:26;;;;;;;55.78;25.08;;;;;;;;;;2091338;28;20036;-54
2023/12/02 04:56:27;;;;;;;54.28;25.02;;;;;;;;;;2091334;28;20021;-54
2023/12/02 04:57:28;;;;;;;61.25;26.08;;;;;;;;;;2091451;28;20036;-54
2023/12/02 04:58:28;;;;;;;61.65;27.40;;;;;;;;;;2091331;28;20064;-54
2023/12/02 04:59:29;;;;;;;48.30;23.48;;;;;;;;;;2091691;28;20068;-54
2023/12/02 05:00:30;;;;;;;57.70;25.52;;;;;;;;;;2091382;28;20056;-54
2023/12/02 05:01:30;;;;;;;53.55;26.83;;;;;;;;;;2091127;28;20479;-54
2023/12/02 05:02:31;;;;;;;58.60;26.75;;;;;;;;;;2091200;28;20488;-54
2023/12/02 05:03:32;;;;;;;60.47;26.50;;;;;;;;;;2091564;28;20041;-54
2023/12/02 05:04:33;;;;;;;59.00;26.10;;;;;;;;;;2091729;28;20041;-54
2023/12/02 05:05:33;;;;;;;53.72;24.30;;;;;;;;;;2091339;28;20044;-54
2023/12/02 05:06:34;;;;;;;55.72;26.98;;;;;;;;;;2091217;28;20397;-54
2023/12/02 05:07:35;;;;;;;53.92;24.52;;;;;;;;;;2091672;28;20480;-55
2023/12/02 05:08:36;;;;;;;61.78;26.02;;;;;;;;;;2091464;28;20044;-54
2023/12/02 05:09:37;;;;;;;56.40;26.08;;;;;;;;;;2091246;28;20029;-54
2023/12/02 05:10:37;;;;;;;55.33;25.58;;;;;;;;;;2091608;28;20530;-55
2023/12/02 05:11:39;;;;;;;68.13;26.58;;;;;;;;;;2091311;28;20365;-55
2023/12/02 05:12:40;;;;;;;61.80;26.98;;;;;;;;;;2091392;28;20037;-55
2023/12/02 05:13:40;;;;;;;55.70;26.27;;;;;;;;;;2091414;28;20366;-55
2023/12/02 05:14:41;;;;;;;54.45;26.40;;;;;;;;;;2091384;28;20045;-54
2023/12/02 05:15:42;;;;;;;54.85;26.13;;;;;;;;;;2091314;28;20036;-54
2023/12/02 05:16:43;;;;;;;59.47;26.63;;;;;;;;;;2090966;28;20029;-55
2023/12/02 05:17:45;;;;;;;55.05;25.38;;;;;;;;;;2091664;28;20057;-54
2023/12/02 05:18:46;;;;;;;58.30;25.67;;;;;;;;;;2091384;28;20424;-54
2023/12/02 05:19:47;;;;;;;49.83;23.92;;;;;;;;;;2091609;28;20044;-54
2023/12/02 05:20:48;;;;;;;57.22;24.88;;;;;;;;;;2091258;28;20064;-55
2023/12/02 05:21:48;;;;;;;51.15;24.00;;;;;;;;;;2091314;28;20053;-55
2023/12/02 05:22:49;;;;;;;50.33;24.00;;;;;;;;;;2090943;28;20037;-55
2023/12/02 05:23:50;;;;;;;51.63;24.27;;;;;;;;;;2090843;28;20037;-55
2023/12/02 05:24:50;;;;;;;56.03;25.23;;;;;;;;;;2090718;28;20134;-55
2023/12/02 05:25:51;;;;;;;59.55;24.73;;;;;;;;;;2090607;28;20504;-55
2023/12/02 05:26:52;;;;;;;64.38;27.50;;;;;;;;;;2090753;28;20028;-55
2023/12/02 05:27:53;;;;;;;46.63;23.98;;;;;;;;;;2090833;28;20043;-54
2023/12/02 05:28:53;;;;;;;54.70;24.38;;;;;;;;;;2090686;28;20033;-55
2023/12/02 05:29:54;;;;;;;58.38;26.08;;;;;;;;;;2090093;28;20048;-55
2023/12/02 05:30:55;;;;;;;51.78;25.30;;;;;;;;;;2090768;28;20033;-55
2023/12/02 05:31:56;;;;;;;53.78;25.45;;;;;;;;;;2091171;28;20029;-55
2023/12/02 05:32:56;;;;;;;51.72;24.05;;;;;;;;;;2091102;28;20037;-54
2023/12/02 05:33:58;;;;;;;52.35;24.92;;;;;;;;;;2091063;28;20036;-54
2023/12/02 05:34:58;;;;;;;51.70;24.80;;;;;;;;;;2091429;28;20403;-54
2023/12/02 05:35:59;;;;;;;58.33;25.08;;;;;;;;;;2090997;28;20049;-54
2023/12/02 05:37:00;;;;;;;53.65;23.80;;;;;;;;;;2090716;28;20045;-54
2023/12/02 05:38:01;;;;;;;50.53;24.08;;;;;;;;;;2090308;28;20041;-54
2023/12/02 05:39:02;;;;;;;51.78;23.90;;;;;;;;;;2090824;28;20037;-54
2023/12/02 05:40:04;;;;;;;58.67;25.17;;;;;;;;;;2091016;28;20037;-55
2023/12/02 05:41:05;;;;;;;46.80;23.13;;;;;;;;;;2090961;28;20040;-54
2023/12/02 05:42:05;;;;;;;56.15;25.08;;;;;;;;;;2091069;28;20044;-54
2023/12/02 05:43:07;;;;;;;47.80;22.65;;;;;;;;;;2090903;28;20124;-54
2023/12/02 05:44:08;;;;;;;51.60;23.33;;;;;;;;;;2090636;28;20487;-55
2023/12/02 05:45:09;;;;;;;46.13;22.25;;;;;;;;;;2091303;28;20056;-54
2023/12/02 05:46:16;;;;;;;52.88;24.70;;;;;;;;;;2090792;28;20552;-54
2023/12/02 05:47:16;;;;;;;47.28;23.00;;;;;;;;;;2090899;28;20045;-54
2023/12/02 05:48:17;;;;;;;57.65;23.42;;;;;;;;;;2090935;28;20028;-54
2023/12/02 05:49:18;;;;;;;54.50;24.20;;;;;;;;;;2091343;28;20049;-54
2023/12/02 05:50:19;;;;;;;61.08;25.33;;;;;;;;;;2091245;28;20075;-54
2023/12/02 05:51:19;;;;;;;48.97;24.38;;;;;;;;;;2091082;28;20040;-54
2023/12/02 05:52:20;;;;;;;51.20;24.15;;;;;;;;;;2091164;28;20041;-55
2023/12/02 05:53:21;;;;;;;53.38;24.73;;;;;;;;;;2091044;28;20405;-54
2023/12/02 05:54:21;;;;;;;48.63;23.20;;;;;;;;;;2091157;28;20044;-54